Observations for BENSON RAF, United Kingdom (EGUB)

EGUB 220450Z 16005KT 4500 BR OVC003 17/17 Q1019 YLO2
EGUB 220350Z 17004KT 3700 BR OVC004 18/17 Q1019 YLO2
EGUB 220250Z 18003KT 4000 BR BKN005 OVC030 18/17 Q1020 YLO1 
EGUB 220150Z 16004KT 6000 BR FEW005 BKN030 18/17 Q1020 WHT  
EGUB 220050Z AUTO 16005KT 7000 // BKN005/// BKN027/// 18/18 Q1020   
EGUB 212350Z AUTO 16004KT 9000 // BKN024/// BKN031/// 18/18 Q1020   
EGUB 212250Z 15005KT 7000 BR BKN023 18/18 Q1020 WHT 
EGUB 212150Z 15005KT 9999 BKN022 18/18 Q1021 WHT BECMG 4000 BR FEW006 GRN   
EGUB 212050Z 16005KT 9999 -RA OVC028 18/17 Q1021 BLU BECMG 6000 BR WHT  
EGUB 211950Z 13006KT 9999 OVC033 19/17 Q1020 BLU NOSIG  
EGUB 211850Z 13005KT 9999 FEW014 BKN035 19/17 Q1020 BLU NOSIG   
EGUB 211750Z 12005KT 9999 FEW011 SCT034 BKN041 19/17 Q1020 BLU NOSIG
EGUB 211650Z 13004KT 9999 BKN010 19/17 Q1020 GRN BECMG BKN016 WHT   
EGUB 211609Z 11003KT 9999 FEW004 OVC010 18/17 Q1020 GRN BECMG BKN016 WHT
EGUB 211550Z 10001KT 5000 -DZ FEW009 OVC010 19/17 Q1021 GRN BECMG 9999 NSW BKN016 WHT   
EGUB 211502Z 05001KT 6000 HZ OVC013 19/16 Q1020 GRN BECMG 9999 NSW BKN016 WHT
EGUB 211450Z 13002KT 9999 OVC013 19/16 Q1021 GRN BECMG BKN015 WHT   
EGUB 211350Z 15003KT 9999 FEW011 OVC014 19/16 Q1020 GRN BECMG BKN016 WHT
EGUB 211250Z 15004KT 9999 OVC012 18/15 Q1021 GRN NOSIG  
EGUB 211150Z 14002KT 9999 OVC013 19/16 Q1021 GRN TEMPO FEW013 BKN016 WHT
EGUB 211050Z 09002KT 9999 OVC012 18/15 Q1021 GRN NOSIG  
EGUB 210950Z 09003KT 9999 OVC009 17/15 Q1021 GRN NOSIG  
EGUB 210850Z 12002KT 9999 FEW006 OVC009 17/14 Q1021 GRN NOSIG   
EGUB 210750Z 11006KT 9999 FEW007 BKN011 16/14 Q1021 GRN NOSIG   
EGUB 210650Z 10006KT 9999 BKN011 15/14 Q1020 GRN TEMPO BKN006 YLO1  
EGUB 210550Z 11004KT 5000 BR FEW007 OVC010 14/13 Q1020 GRN TEMPO BKN006 YLO1
EGUB 210450Z AUTO 09005KT 7000 // OVC009/// 14/13 Q1020